Time;durP1;ratioP1;P1;durP2;ratioP2;P2;SDS_P1;SDS_P2;PMS_P1;PMS_P2;Temp;Humidity;BMP_temperature;BMP_pressure;BME280_temperature;BME280_humidity;BME280_pressure;Samples;Min_cycle;Max_cycle;Signal;HPM_P1;HPM_P2
2023/04/21 00:00:00;;;;;;;0.05;0.05;;;;;;;5.75;79.55;100400.69;6214444;23;20012;-78
2023/04/21 00:02:26;;;;;;;0.00;0.00;;;;;;;5.75;79.49;100406.09;6259780;22;20035;-77
2023/04/21 00:04:52;;;;;;;0.00;0.00;;;;;;;5.63;79.61;100407.97;6237935;23;20015;-77
2023/04/21 00:07:19;;;;;;;0.00;0.00;;;;;;;5.51;80.20;100398.97;6238799;23;20012;-78
2023/04/21 00:09:44;;;;;;;0.00;0.00;;;;;;;5.39;80.89;100397.06;6236867;22;20000;-77
2023/04/21 00:12:09;;;;;;;0.00;0.00;;;;;;;5.35;81.49;100398.59;6264034;22;20494;-78
2023/04/21 00:14:35;;;;;;;0.00;0.00;;;;;;;5.21;81.17;100386.28;6238911;22;20014;-77
2023/04/21 00:17:00;;;;;;;0.00;0.00;;;;;;;5.07;81.64;100380.25;6191466;22;20090;-77
2023/04/21 00:19:27;;;;;;;0.00;0.00;;;;;;;5.12;82.36;100393.91;6217538;22;20014;-78
2023/04/21 00:21:57;;;;;;;0.10;0.10;;;;;;;5.05;82.21;100383.19;6214586;22;20473;-79
2023/04/21 00:24:23;;;;;;;0.00;0.00;;;;;;;5.02;82.08;100380.09;6221085;22;20346;-78
2023/04/21 00:26:48;;;;;;;0.00;0.00;;;;;;;5.01;82.49;100378.47;6190368;22;20004;-77
2023/04/21 00:29:14;;;;;;;0.00;0.00;;;;;;;5.00;82.99;100388.47;6193930;22;20008;-78
2023/04/21 00:31:39;;;;;;;0.00;0.00;;;;;;;4.97;83.07;100383.50;6243793;22;20456;-78
2023/04/21 00:34:05;;;;;;;0.00;0.00;;;;;;;4.91;83.23;100373.59;6215873;22;20062;-77
2023/04/21 00:36:31;;;;;;;0.10;0.10;;;;;;;4.84;83.04;100372.84;6194018;22;20087;-78
2023/04/21 00:38:56;;;;;;;0.10;0.10;;;;;;;4.84;83.40;100370.94;6188115;22;20008;-77
2023/04/21 00:41:22;;;;;;;0.00;0.00;;;;;;;4.81;83.97;100367.88;6194350;22;20012;-77
2023/04/21 00:44:05;;;;;;;0.00;0.00;;;;;;;4.79;84.10;100365.41;6237951;22;20023;-77
2023/04/21 00:46:31;;;;;;;0.00;0.00;;;;;;;4.80;84.30;100360.81;6243799;22;19999;-78
2023/04/21 00:48:58;;;;;;;0.00;0.00;;;;;;;4.80;84.96;100366.22;6240282;22;20082;-77
2023/04/21 00:51:24;;;;;;;0.00;0.00;;;;;;;4.91;84.63;100365.47;6193460;22;20003;-78
2023/04/21 00:53:50;;;;;;;0.00;0.00;;;;;;;5.08;85.34;100368.31;6266037;22;20003;-79
2023/04/21 00:56:16;;;;;;;0.00;0.00;;;;;;;5.41;84.39;100373.25;6217158;22;20004;-76
2023/04/21 00:58:44;;;;;;;0.00;0.00;;;;;;;5.67;83.79;100375.78;6245039;22;20019;-76
2023/04/21 01:01:09;;;;;;;0.00;0.00;;;;;;;5.74;83.22;100366.44;6265536;22;20489;-77
2023/04/21 01:03:35;;;;;;;0.00;0.00;;;;;;;5.79;82.77;100359.50;6243114;22;20073;-77
2023/04/21 01:06:01;;;;;;;0.10;0.10;;;;;;;5.70;83.35;100365.25;6237458;22;20762;-77
2023/04/21 01:08:26;;;;;;;0.00;0.00;;;;;;;5.50;83.74;100360.16;6217741;22;20011;-77
2023/04/21 01:10:52;;;;;;;0.00;0.00;;;;;;;5.41;84.25;100362.38;6266575;22;20528;-76
2023/04/21 01:13:23;;;;;;;0.10;0.10;;;;;;;5.41;84.39;100356.97;6217143;22;20019;-77
2023/04/21 01:15:49;;;;;;;0.00;0.00;;;;;;;5.46;84.26;100353.59;6219452;22;20014;-78
2023/04/21 01:18:15;;;;;;;0.00;0.00;;;;;;;5.53;84.82;100354.28;6214817;22;20375;-78
2023/04/21 01:20:43;;;;;;;0.00;0.00;;;;;;;5.64;83.88;100349.94;6244916;22;20381;-76
2023/04/21 01:23:09;;;;;;;0.00;0.00;;;;;;;5.81;83.94;100343.78;6244912;22;20058;-77
2023/04/21 01:25:35;;;;;;;0.00;0.00;;;;;;;5.91;83.15;100338.59;6191258;22;20004;-77
2023/04/21 01:28:00;;;;;;;0.00;0.00;;;;;;;6.03;83.00;100347.59;6219167;22;20010;-77
2023/04/21 01:30:26;;;;;;;0.00;0.00;;;;;;;6.15;83.13;100349.44;6240777;22;20354;-77
2023/04/21 01:32:51;;;;;;;0.00;0.00;;;;;;;6.27;82.98;100347.56;6219766;22;20061;-77
2023/04/21 01:35:17;;;;;;;0.00;0.00;;;;;;;6.40;81.90;100347.28;6240806;22;20090;-76
2023/04/21 01:37:42;;;;;;;0.00;0.00;;;;;;;6.41;81.31;100348.94;6194956;22;20065;-77
2023/04/21 01:40:09;;;;;;;0.00;0.00;;;;;;;6.52;81.65;100349.97;6244223;22;20014;-77
2023/04/21 01:42:37;;;;;;;0.00;0.00;;;;;;;6.53;82.19;100343.47;6266637;22;20336;-77
2023/04/21 01:45:03;;;;;;;0.10;0.10;;;;;;;6.53;81.59;100339.94;6272756;22;20038;-77
2023/04/21 01:47:29;;;;;;;0.00;0.00;;;;;;;6.58;81.53;100342.75;6241094;22;20003;-77
2023/04/21 01:49:54;;;;;;;0.00;0.00;;;;;;;6.58;81.41;100337.31;6244391;22;20004;-77
2023/04/21 01:52:20;;;;;;;0.00;0.00;;;;;;;6.65;81.17;100343.44;6242525;22;20331;-77
2023/04/21 01:54:45;;;;;;;0.00;0.00;;;;;;;6.71;81.98;100342.47;6244119;22;20007;-77
2023/04/21 01:57:11;;;;;;;0.00;0.00;;;;;;;6.78;81.20;100343.13;6218063;22;20049;-76
2023/04/21 01:59:36;;;;;;;0.00;0.00;;;;;;;6.89;80.84;100338.75;6242846;22;20441;-76
2023/04/21 02:02:02;;;;;;;0.00;0.00;;;;;;;6.95;80.54;100339.63;6244103;22;20346;-78
2023/04/21 02:04:28;;;;;;;0.00;0.00;;;;;;;6.99;79.98;100332.63;6237773;22;20046;-77
2023/04/21 02:06:53;;;;;;;0.00;0.00;;;;;;;7.00;81.01;100326.16;6270031;22;20419;-79
2023/04/21 02:09:19;;;;;;;0.10;0.10;;;;;;;7.07;80.34;100321.38;6238228;22;20020;-79
2023/04/21 02:11:44;;;;;;;0.00;0.00;;;;;;;7.13;80.27;100317.66;6193802;22;20431;-78
2023/04/21 02:14:10;;;;;;;0.00;0.00;;;;;;;7.12;79.90;100315.19;6218537;22;20023;-78
2023/04/21 02:16:35;;;;;;;0.00;0.00;;;;;;;7.12;79.76;100316.00;6241194;22;20388;-78
2023/04/21 02:19:01;;;;;;;0.00;0.00;;;;;;;7.18;80.18;100318.84;6270650;22;20008;-77
2023/04/21 02:21:27;;;;;;;0.00;0.00;;;;;;;7.22;79.45;100315.38;6218557;22;20629;-76
2023/04/21 02:23:52;;;;;;;0.10;0.10;;;;;;;7.22;79.38;100309.94;6214024;22;20007;-77
2023/04/21 02:26:18;;;;;;;0.00;0.00;;;;;;;7.19;79.23;100304.16;6220432;22;20011;-77
2023/04/21 02:28:44;;;;;;;0.00;0.00;;;;;;;7.18;79.25;100303.31;6264679;22;20339;-79
2023/04/21 02:31:10;;;;;;;0.00;0.00;;;;;;;7.09;79.74;100300.19;6244607;22;20058;-77
2023/04/21 02:33:35;;;;;;;0.00;0.00;;;;;;;6.98;79.05;100287.50;6241431;22;20098;-79
2023/04/21 02:36:01;;;;;;;0.00;0.00;;;;;;;7.00;79.95;100298.94;6244750;22;20011;-77
2023/04/21 02:38:26;;;;;;;0.10;0.10;;;;;;;7.01;79.66;100297.03;6245753;22;20369;-78
2023/04/21 02:40:52;;;;;;;0.10;0.10;;;;;;;6.98;79.46;100303.81;6215034;22;20015;-77
2023/04/21 02:43:17;;;;;;;0.00;0.00;;;;;;;6.93;79.37;100290.94;6243939;22;20061;-78
2023/04/21 02:45:42;;;;;;;0.00;0.00;;;;;;;6.93;79.92;100285.50;6215884;22;20011;-78
2023/04/21 02:48:08;;;;;;;0.00;0.00;;;;;;;6.91;79.39;100286.84;6194942;22;20410;-77
2023/04/21 02:50:34;;;;;;;0.00;0.00;;;;;;;6.85;79.98;100287.78;6239992;22;20011;-77
2023/04/21 02:52:59;;;;;;;0.10;0.10;;;;;;;6.76;79.48;100285.50;6243286;22;20003;-77
2023/04/21 02:55:25;;;;;;;0.00;0.00;;;;;;;6.78;79.91;100287.97;6245387;22;20014;-77
2023/04/21 02:57:50;;;;;;;0.00;0.00;;;;;;;6.79;80.57;100279.56;6215225;22;20033;-77
2023/04/21 03:00:16;;;;;;;0.00;0.00;;;;;;;6.84;80.03;100278.00;6217471;22;20007;-78
2023/04/21 03:02:43;;;;;;;0.00;0.00;;;;;;;6.88;79.91;100268.28;6221142;22;20004;-74
2023/04/21 03:05:09;;;;;;;0.00;0.00;;;;;;;6.88;80.37;100271.00;6274623;22;20006;-73
2023/04/21 03:07:34;;;;;;;0.00;0.00;;;;;;;7.00;79.98;100269.03;6213861;22;20003;-74
2023/04/21 03:10:03;;;;;;;0.00;0.00;;;;;;;7.01;79.87;100265.25;6271074;22;20024;-74
2023/04/21 03:12:28;;;;;;;0.00;0.00;;;;;;;7.07;79.70;100264.28;6242854;22;20438;-73
2023/04/21 03:14:55;;;;;;;0.00;0.00;;;;;;;7.12;79.33;100260.81;6189725;22;20006;-74
2023/04/21 03:17:20;;;;;;;0.00;0.00;;;;;;;7.08;79.18;100257.78;6193891;22;20713;-74
2023/04/21 03:19:46;;;;;;;0.00;0.00;;;;;;;7.02;79.16;100245.13;6214552;22;20027;-73
2023/04/21 03:22:11;;;;;;;0.00;0.00;;;;;;;6.95;79.32;100247.19;6241377;22;20342;-73
2023/04/21 03:24:36;;;;;;;0.00;0.00;;;;;;;6.92;80.27;100253.13;6213431;22;20072;-74
2023/04/21 03:27:04;;;;;;;0.00;0.00;;;;;;;6.86;79.53;100237.81;6220685;22;20007;-74
2023/04/21 03:29:30;;;;;;;0.00;0.00;;;;;;;6.76;79.89;100230.28;6242095;22;20390;-73
2023/04/21 03:31:55;;;;;;;0.00;0.00;;;;;;;6.74;79.86;100227.81;6191669;22;20018;-74
2023/04/21 03:34:20;;;;;;;0.00;0.00;;;;;;;6.58;80.29;100220.47;6217967;22;20011;-74
2023/04/21 03:36:46;;;;;;;0.00;0.00;;;;;;;6.55;80.64;100212.81;6238694;22;20007;-73
2023/04/21 03:39:11;;;;;;;0.00;0.00;;;;;;;6.53;80.89;100226.66;6240540;22;20034;-73
2023/04/21 03:41:37;;;;;;;0.00;0.00;;;;;;;6.41;82.04;100210.41;6265989;22;20446;-73
2023/04/21 03:44:02;;;;;;;0.00;0.00;;;;;;;6.36;81.62;100213.03;6218651;22;20150;-74
2023/04/21 03:46:27;;;;;;;0.00;0.00;;;;;;;6.23;81.90;100195.13;6191983;22;20012;-73
2023/04/21 03:48:53;;;;;;;0.00;0.00;;;;;;;6.18;82.70;100202.38;6210824;22;20598;-73
2023/04/21 03:51:19;;;;;;;0.10;0.10;;;;;;;6.04;82.82;100191.78;6216737;22;20310;-74
2023/04/21 03:53:44;;;;;;;0.00;0.00;;;;;;;6.00;82.86;100201.50;6237038;22;20012;-74
2023/04/21 03:56:10;;;;;;;0.00;0.00;;;;;;;5.89;83.10;100189.56;6215580;22;20011;-74
2023/04/21 03:58:35;;;;;;;0.00;0.00;;;;;;;5.90;84.16;100196.66;6213077;22;20038;-74
2023/04/21 04:01:03;;;;;;;0.00;0.00;;;;;;;5.85;84.15;100188.38;6243302;22;20015;-74
2023/04/21 04:03:28;;;;;;;0.00;0.00;;;;;;;5.81;84.64;100189.13;6218872;22;20050;-75
2023/04/21 04:05:54;;;;;;;0.00;0.00;;;;;;;5.84;84.96;100180.50;6190230;22;20031;-75
2023/04/21 04:08:20;;;;;;;0.00;0.00;;;;;;;5.86;84.57;100172.94;6242601;22;20141;-75
2023/04/21 04:10:45;;;;;;;0.00;0.00;;;;;;;5.91;85.04;100173.88;6189094;22;20550;-76
2023/04/21 04:13:11;;;;;;;0.00;0.00;;;;;;;5.90;84.42;100155.94;6212491;22;20032;-75
2023/04/21 04:15:36;;;;;;;0.10;0.10;;;;;;;6.11;84.25;100169.94;6233657;23;20045;-73
2023/04/21 04:18:02;;;;;;;0.00;0.00;;;;;;;6.17;84.23;100163.53;6212613;23;20019;-74
2023/04/21 04:20:27;;;;;;;0.00;0.00;;;;;;;6.08;83.98;100144.09;6211906;23;20016;-75
2023/04/21 04:22:52;;;;;;;0.00;0.00;;;;;;;6.35;84.18;100154.34;6206348;23;20095;-73
2023/04/21 04:25:18;;;;;;;0.00;0.00;;;;;;;6.41;83.83;100158.81;6163923;23;20015;-74
2023/04/21 04:27:44;;;;;;;0.00;0.00;;;;;;;6.42;84.18;100155.00;6183537;23;20027;-74
2023/04/21 04:30:10;;;;;;;0.00;0.00;;;;;;;6.36;83.84;100142.41;6240547;23;20008;-73
2023/04/21 04:32:39;;;;;;;0.00;0.00;;;;;;;6.38;83.26;100148.44;6182027;23;20045;-73
2023/04/21 04:35:05;;;;;;;0.00;0.00;;;;;;;6.32;83.60;100141.25;6212441;23;20008;-73
2023/04/21 04:37:33;;;;;;;0.00;0.00;;;;;;;6.32;84.30;100138.53;6212028;23;20016;-74
2023/04/21 04:39:59;;;;;;;0.00;0.00;;;;;;;6.31;83.57;100125.19;6184043;23;20012;-74
2023/04/21 04:42:35;;;;;;;0.00;0.00;;;;;;;6.39;84.12;100139.19;6211406;23;20018;-74
2023/04/21 04:45:01;;;;;;;0.00;0.00;;;;;;;6.36;83.61;100139.69;6236240;23;20049;-74
2023/04/21 04:47:27;;;;;;;0.00;0.00;;;;;;;6.28;83.87;100127.34;6240336;23;20035;-75
2023/04/21 04:49:53;;;;;;;0.00;0.00;;;;;;;6.26;83.79;100134.94;6159854;23;20007;-75
2023/04/21 04:52:18;;;;;;;0.00;0.00;;;;;;;6.22;84.18;100132.91;6212614;23;20012;-75
2023/04/21 04:54:44;;;;;;;0.00;0.00;;;;;;;6.06;83.97;100116.38;6187519;23;20011;-75
2023/04/21 04:57:09;;;;;;;0.00;0.00;;;;;;;6.10;84.80;100132.97;6189799;23;20084;-75
2023/04/21 04:59:35;;;;;;;0.00;0.00;;;;;;;5.98;84.60;100132.22;6240448;23;20011;-75
2023/04/21 05:02:02;;;;;;;0.00;0.00;;;;;;;5.86;85.26;100137.66;6210532;23;20012;-76
2023/04/21 05:04:27;;;;;;;0.00;0.00;;;;;;;5.74;85.09;100133.09;6239301;23;20034;-77
2023/04/21 05:06:52;;;;;;;0.00;0.00;;;;;;;5.69;85.85;100127.56;6160725;23;20004;-76
2023/04/21 05:09:18;;;;;;;0.00;0.00;;;;;;;5.56;85.52;100122.41;6189308;23;20087;-78
2023/04/21 05:11:45;;;;;;;0.00;0.00;;;;;;;5.51;85.90;100135.88;6186559;23;20058;-74
2023/04/21 05:14:10;;;;;;;0.00;0.00;;;;;;;5.40;87.26;100130.25;6209911;23;20458;-76
2023/04/21 05:16:35;;;;;;;0.00;0.00;;;;;;;5.30;87.47;100127.31;6214940;23;20004;-76
2023/04/21 05:19:01;;;;;;;0.00;0.00;;;;;;;5.24;87.16;100122.81;6211456;23;20095;-76
2023/04/21 05:21:27;;;;;;;0.05;0.05;;;;;;;5.23;88.00;100134.75;6239547;23;20087;-76
2023/04/21 05:23:58;;;;;;;0.00;0.00;;;;;;;5.09;88.59;100098.13;6210519;23;20419;-77
2023/04/21 05:26:28;;;;;;;0.00;0.00;;;;;;;5.23;87.99;100127.44;6214832;23;20058;-75
2023/04/21 05:28:55;;;;;;;0.00;0.00;;;;;;;5.16;88.63;100128.63;6237771;22;20411;-76
2023/04/21 05:31:24;;;;;;;0.00;0.00;;;;;;;5.19;88.37;100130.88;6242653;23;19995;-77
2023/04/21 05:33:49;;;;;;;0.00;0.00;;;;;;;5.12;88.08;100130.16;6215071;23;20015;-77
2023/04/21 05:36:15;;;;;;;0.00;0.00;;;;;;;5.12;88.18;100127.44;6209800;23;20054;-77
2023/04/21 05:38:40;;;;;;;0.10;0.10;;;;;;;5.14;88.81;100123.44;6214784;23;20380;-77
2023/04/21 05:41:06;;;;;;;0.00;0.00;;;;;;;5.24;88.04;100133.66;6185011;23;20455;-76
2023/04/21 05:43:34;;;;;;;0.00;0.00;;;;;;;5.01;88.43;100118.28;6238834;23;20082;-76
2023/04/21 05:46:08;;;;;;;0.00;0.00;;;;;;;5.01;89.79;100129.94;6190412;23;20016;-75
2023/04/21 05:48:34;;;;;;;0.00;0.00;;;;;;;4.84;90.90;100112.75;6235974;23;20061;-77
2023/04/21 05:51:14;;;;;;;0.00;0.00;;;;;;;4.92;90.73;100131.38;6240217;23;20323;-77
2023/04/21 05:53:40;;;;;;;0.00;0.00;;;;;;;4.93;91.73;100126.75;6235330;23;20111;-77
2023/04/21 05:56:08;;;;;;;0.00;0.00;;;;;;;4.88;91.61;100111.22;6214422;23;20004;-76
2023/04/21 05:58:34;;;;;;;0.00;0.00;;;;;;;4.87;91.29;100104.94;6235764;23;20004;-77
2023/04/21 06:01:00;;;;;;;0.00;0.00;;;;;;;4.98;91.49;100114.16;6213683;23;20008;-77
2023/04/21 06:03:29;;;;;;;0.10;0.10;;;;;;;5.00;91.84;100106.59;6234547;23;20015;-77
2023/04/21 06:05:55;;;;;;;0.00;0.00;;;;;;;5.02;92.02;100112.63;6237937;23;20015;-76
2023/04/21 06:08:21;;;;;;;0.00;0.00;;;;;;;5.11;91.69;100118.50;6235767;23;20008;-77
2023/04/21 06:10:47;;;;;;;0.00;0.00;;;;;;;5.15;91.89;100124.25;6238808;23;20004;-76
2023/04/21 06:13:13;;;;;;;0.00;0.00;;;;;;;5.12;91.64;100114.72;6236938;22;20336;-77
2023/04/21 06:15:38;;;;;;;0.00;0.00;;;;;;;5.21;90.29;100117.88;6235132;23;20004;-79
2023/04/21 06:18:04;;;;;;;0.00;0.00;;;;;;;5.38;90.84;100118.81;6239391;23;20411;-77
2023/04/21 06:20:29;;;;;;;0.00;0.00;;;;;;;5.49;90.44;100124.44;6234293;23;20016;-77
2023/04/21 06:22:57;;;;;;;0.00;0.00;;;;;;;5.57;90.26;100113.22;6239962;23;20000;-77
2023/04/21 06:25:23;;;;;;;0.00;0.00;;;;;;;5.70;89.53;100099.38;6211196;23;20085;-76
2023/04/21 06:27:48;;;;;;;0.00;0.00;;;;;;;6.00;89.61;100102.94;6239489;22;20415;-76
2023/04/21 06:30:16;;;;;;;0.00;0.00;;;;;;;6.20;88.13;100080.75;6239806;23;20028;-76
2023/04/21 06:32:46;;;;;;;0.00;0.00;;;;;;;6.61;86.63;100090.41;6235999;23;20058;-76
2023/04/21 06:35:26;;;;;;;0.00;0.00;;;;;;;6.84;85.16;100085.03;6261289;22;20016;-77
2023/04/21 06:37:52;;;;;;;0.05;0.05;;;;;;;7.32;84.82;100108.00;6233375;23;20039;-77
2023/04/21 06:40:17;;;;;;;0.00;0.00;;;;;;;7.53;83.58;100102.81;6236399;23;20004;-74
2023/04/21 06:42:43;;;;;;;0.00;0.00;;;;;;;7.76;82.77;100093.53;6236309;23;20012;-75
2023/04/21 06:45:09;;;;;;;0.00;0.00;;;;;;;8.13;81.29;100101.84;6208223;23;20008;-76
2023/04/21 06:47:35;;;;;;;0.00;0.00;;;;;;;8.35;81.12;100100.91;6211460;23;20374;-77
2023/04/21 06:50:00;;;;;;;0.00;0.00;;;;;;;8.53;79.67;100095.13;6233421;23;20054;-77
2023/04/21 06:52:35;;;;;;;0.10;0.10;;;;;;;8.61;78.69;100079.38;6238468;23;20012;-78
2023/04/21 06:55:01;;;;;;;0.00;0.00;;;;;;;8.93;77.98;100083.94;6236320;22;20015;-79
2023/04/21 06:57:26;;;;;;;0.00;0.00;;;;;;;9.01;77.58;100077.97;6238788;23;20027;-85
2023/04/21 06:59:52;;;;;;;0.00;0.00;;;;;;;8.99;76.86;100069.25;6210957;23;20149;-78
2023/04/21 07:02:26;;;;;;;0.00;0.00;;;;;;;9.07;75.93;100055.13;6240346;23;20320;-78
2023/04/21 07:04:53;;;;;;;0.00;0.00;;;;;;;9.34;75.80;100065.88;6240048;23;20058;-78
2023/04/21 07:07:19;;;;;;;0.00;0.00;;;;;;;9.64;74.86;100063.50;6246494;23;20016;-84
2023/04/21 07:09:47;;;;;;;0.00;0.00;;;;;;;9.98;74.33;100057.59;6249115;23;20000;-83
2023/04/21 07:12:30;;;;;;;0.00;0.00;;;;;;;10.11;72.01;100057.88;6246244;23;20016;-87
2023/04/21 07:15:00;;;;;;;0.00;0.00;;;;;;;10.22;71.83;100042.31;6247730;23;20012;-85
2023/04/21 07:17:28;;;;;;;0.00;0.00;;;;;;;10.66;70.84;100060.09;6221424;23;20034;-85
2023/04/21 07:19:56;;;;;;;0.00;0.00;;;;;;;10.84;69.76;100053.22;6193662;23;20018;-85
2023/04/21 07:22:24;;;;;;;0.03;0.03;;;;;;;11.07;69.56;100023.59;6237861;23;20000;-85
2023/04/21 07:25:05;;;;;;;0.00;0.00;;;;;;;11.54;68.53;100038.75;6215253;23;20013;-86
2023/04/21 07:27:38;;;;;;;0.08;0.08;;;;;;;11.35;67.72;100009.25;6212433;23;20093;-82
2023/04/21 07:30:07;;;;;;;0.00;0.00;;;;;;;11.30;66.77;100033.94;6240212;23;20075;-82
2023/04/21 07:32:37;;;;;;;0.00;0.00;;;;;;;10.97;66.92;100025.28;6230833;23;20107;-80
2023/04/21 07:36:14;;;;;;;0.00;0.00;;;;;;;10.85;67.25;100043.09;6188202;23;20100;-83
2023/04/21 07:39:04;;;;;;;;;;;;;;;;;;;;;
2023/04/21 07:42:00;;;;;;;;;;;;;;;;;;;;;
2023/04/21 07:48:28;;;;;;;;;;;;;;;;;;;;;
2023/04/21 07:51:05;;;;;;;0.00;0.00;;;;;;;10.72;67.82;100028.06;6065418;23;20026;-85
2023/04/21 08:00:35;;;;;;;0.00;0.00;;;;;;;10.78;66.42;99984.03;6001207;23;20134;-84
2023/04/21 08:03:01;;;;;;;0.00;0.00;;;;;;;10.83;65.72;99977.72;5920818;24;20017;-78
2023/04/21 08:05:29;;;;;;;0.00;0.00;;;;;;;11.07;65.63;100001.72;5990477;23;20098;-78
2023/04/21 08:08:01;;;;;;;0.00;0.00;;;;;;;11.20;65.13;100005.78;6080399;23;20013;-78
2023/04/21 08:10:28;;;;;;;0.00;0.00;;;;;;;11.41;65.04;99996.38;6146602;23;20008;-79
2023/04/21 08:12:56;;;;;;;0.00;0.00;;;;;;;11.50;64.71;99993.84;6122934;23;20032;-80
2023/04/21 08:15:21;;;;;;;0.00;0.00;;;;;;;11.85;64.00;100011.16;6232599;23;20004;-79
2023/04/21 08:17:57;;;;;;;;;;;;;;;;;;;;;
2023/04/21 08:20:25;;;;;;;0.00;0.00;;;;;;;12.08;62.79;99981.44;6210182;23;20095;-81
2023/04/21 08:22:53;;;;;;;0.00;0.00;;;;;;;12.19;62.22;99988.44;6236860;23;20493;-77
2023/04/21 08:25:20;;;;;;;0.00;0.00;;;;;;;12.18;61.87;99992.31;6185151;23;20024;-78
2023/04/21 08:27:45;;;;;;;0.10;0.10;;;;;;;12.05;62.29;99989.13;6211990;23;20000;-78
2023/04/21 08:30:14;;;;;;;0.00;0.00;;;;;;;11.98;62.42;99994.09;6211625;23;20012;-76
2023/04/21 08:32:44;;;;;;;0.00;0.00;;;;;;;11.83;61.99;99975.84;6206963;23;20316;-79
2023/04/21 08:35:19;;;;;;;0.00;0.00;;;;;;;11.88;62.64;99978.56;6187822;23;20012;-78
2023/04/21 08:37:44;;;;;;;0.00;0.00;;;;;;;12.14;62.12;99974.81;6210454;23;20011;-78
2023/04/21 08:40:13;;;;;;;0.00;0.00;;;;;;;12.34;62.07;99971.06;6236831;23;20008;-77
2023/04/21 08:42:57;;;;;;;0.00;0.00;;;;;;;12.27;61.27;99959.63;6239957;23;20030;-78
2023/04/21 08:45:26;;;;;;;0.10;0.10;;;;;;;12.50;61.40;99971.72;6212681;23;20012;-76
2023/04/21 08:47:54;;;;;;;0.03;0.03;;;;;;;12.86;60.07;99985.03;6212360;23;20000;-77
2023/04/21 08:50:24;;;;;;;0.00;0.00;;;;;;;12.65;59.73;99960.59;6237602;23;20007;-77
2023/04/21 08:53:15;;;;;;;0.00;0.00;;;;;;;12.59;60.34;99980.97;6239566;23;20004;-79
2023/04/21 08:55:41;;;;;;;0.00;0.00;;;;;;;12.30;60.35;99962.59;6238573;23;20370;-77
2023/04/21 08:58:09;;;;;;;0.00;0.00;;;;;;;12.16;61.08;99951.50;6208808;23;20000;-76
2023/04/21 09:00:45;;;;;;;0.00;0.00;;;;;;;11.96;61.16;99957.97;6210378;23;20027;-78
2023/04/21 09:03:10;;;;;;;0.00;0.00;;;;;;;11.92;61.07;99961.53;6239927;23;20014;-77
2023/04/21 09:05:36;;;;;;;0.00;0.00;;;;;;;11.63;61.65;99960.34;6210650;23;20008;-77
2023/04/21 09:08:10;;;;;;;0.00;0.00;;;;;;;11.69;62.11;99978.38;6238765;23;20095;-77
2023/04/21 09:10:47;;;;;;;0.00;0.00;;;;;;;11.68;62.41;99979.50;6207960;23;20005;-77
2023/04/21 09:13:13;;;;;;;0.00;0.00;;;;;;;11.49;62.69;99942.91;6214541;22;20107;-78
2023/04/21 09:15:48;;;;;;;0.00;0.00;;;;;;;11.85;62.71;99972.81;6236178;23;20484;-76
2023/04/21 09:18:19;;;;;;;0.00;0.00;;;;;;;12.04;61.80;99965.56;6236692;23;20042;-77
2023/04/21 09:20:49;;;;;;;0.00;0.00;;;;;;;12.42;61.89;99964.13;6233928;23;20000;-76
2023/04/21 09:23:17;;;;;;;0.00;0.00;;;;;;;12.88;61.08;99958.16;6238733;23;20148;-75
2023/04/21 09:25:44;;;;;;;0.00;0.00;;;;;;;13.04;59.74;99937.63;6232471;23;20122;-75
2023/04/21 09:28:12;;;;;;;0.00;0.00;;;;;;;13.42;59.02;99948.66;6236402;23;20008;-76
2023/04/21 09:30:56;;;;;;;;;;;;;;;;;;;;;
2023/04/21 09:33:22;;;;;;;0.00;0.00;;;;;;;13.35;58.75;99956.47;6238714;23;20075;-75
2023/04/21 09:35:47;;;;;;;0.00;0.00;;;;;;;13.18;58.79;99958.88;6239239;23;20138;-75
2023/04/21 09:38:12;;;;;;;0.00;0.00;;;;;;;13.02;59.04;99967.28;6206940;23;20426;-77
2023/04/21 09:40:39;;;;;;;0.00;0.00;;;;;;;12.78;58.79;99950.03;6238231;23;20016;-75
2023/04/21 09:43:08;;;;;;;0.00;0.00;;;;;;;12.82;59.08;99967.53;6234176;23;20015;-75
2023/04/21 09:45:35;;;;;;;0.00;0.00;;;;;;;12.65;59.39;99941.38;6237940;22;20033;-77
2023/04/21 09:48:02;;;;;;;0.00;0.00;;;;;;;12.74;59.61;99945.09;6235793;22;20079;-78
2023/04/21 09:50:29;;;;;;;0.00;0.00;;;;;;;12.77;59.33;99943.72;6213917;23;20034;-76
2023/04/21 09:53:03;;;;;;;0.00;0.00;;;;;;;12.81;58.91;99938.47;6238257;23;20079;-77
2023/04/21 09:55:32;;;;;;;0.03;0.03;;;;;;;12.70;59.24;99935.03;6236765;23;20028;-78
2023/04/21 09:57:59;;;;;;;0.00;0.00;;;;;;;12.82;59.33;99951.91;6212884;23;20116;-77
2023/04/21 10:00:27;;;;;;;0.00;0.00;;;;;;;12.86;59.53;99952.13;6233433;23;20012;-76
2023/04/21 10:02:57;;;;;;;0.00;0.00;;;;;;;13.08;59.09;99946.91;6237681;23;20409;-76
2023/04/21 10:05:23;;;;;;;0.00;0.00;;;;;;;13.13;58.33;99939.69;6235780;22;20461;-77
2023/04/21 10:07:49;;;;;;;0.00;0.00;;;;;;;13.36;58.26;99949.88;6237407;23;20004;-82
2023/04/21 10:10:28;;;;;;;0.00;0.00;;;;;;;13.22;57.82;99932.47;6233304;23;20008;-81
2023/04/21 10:12:54;;;;;;;0.00;0.00;;;;;;;13.34;58.57;99937.50;6240342;23;20027;-80
2023/04/21 10:15:43;;;;;;;0.00;0.00;;;;;;;13.63;57.84;99942.88;6232686;23;20601;-79
2023/04/21 10:18:22;;;;;;;0.00;0.00;;;;;;;13.95;57.98;99941.28;6237857;23;20000;-77
2023/04/21 10:21:10;;;;;;;0.00;0.00;;;;;;;14.63;57.04;99947.22;6232770;23;20024;-80
2023/04/21 10:23:41;;;;;;;0.00;0.00;;;;;;;14.99;56.06;99927.25;6237238;23;20038;-78
2023/04/21 10:26:12;;;;;;;0.00;0.00;;;;;;;15.47;55.20;99937.75;6239388;23;20415;-75
2023/04/21 10:28:47;;;;;;;0.00;0.00;;;;;;;15.61;54.39;99915.66;6241039;22;20012;-76
2023/04/21 10:31:28;;;;;;;0.00;0.00;;;;;;;15.97;53.83;99919.50;6237782;23;20004;-77
2023/04/21 10:34:14;;;;;;;0.00;0.00;;;;;;;16.49;52.96;99922.56;6241560;23;20004;-83
2023/04/21 10:37:16;;;;;;;0.00;0.00;;;;;;;16.88;52.07;99920.09;6238582;23;20022;-81
2023/04/21 10:40:07;;;;;;;0.00;0.00;;;;;;;16.78;51.72;99912.94;6237735;23;20008;-80
2023/04/21 10:42:35;;;;;;;0.00;0.00;;;;;;;16.47;51.07;99907.44;6240841;23;20510;-77
2023/04/21 10:45:08;;;;;;;0.00;0.00;;;;;;;15.76;50.89;99906.22;6235322;22;20036;-77
2023/04/21 10:47:43;;;;;;;0.00;0.00;;;;;;;14.88;52.06;99898.28;6264252;22;20033;-77
2023/04/21 10:50:26;;;;;;;0.00;0.00;;;;;;;14.27;53.10;99914.88;6235173;23;20399;-81
2023/04/21 10:52:58;;;;;;;0.00;0.00;;;;;;;13.74;54.35;99907.78;6239242;23;20103;-78
2023/04/21 10:55:28;;;;;;;0.00;0.00;;;;;;;13.51;55.60;99912.31;6237559;22;20032;-77
2023/04/21 10:57:54;;;;;;;0.00;0.00;;;;;;;13.28;55.88;99903.81;6264795;22;20015;-76
2023/04/21 11:00:24;;;;;;;0.00;0.00;;;;;;;13.13;57.02;99893.03;6235063;23;20039;-77
2023/04/21 11:02:54;;;;;;;0.00;0.00;;;;;;;13.09;57.69;99903.81;6238208;23;20011;-76
2023/04/21 11:05:26;;;;;;;0.00;0.00;;;;;;;12.82;58.16;99896.19;6237502;23;20004;-78
2023/04/21 11:08:01;;;;;;;0.00;0.00;;;;;;;12.50;58.47;99892.19;6236178;23;20550;-76
2023/04/21 11:10:26;;;;;;;0.00;0.00;;;;;;;12.26;59.78;99903.16;6242715;22;20357;-76
2023/04/21 11:12:56;;;;;;;0.00;0.00;;;;;;;11.78;60.84;99896.41;6208031;23;20024;-80
2023/04/21 11:15:22;;;;;;;0.00;0.00;;;;;;;11.53;61.57;99900.19;6240291;23;20000;-77
2023/04/21 11:17:48;;;;;;;0.00;0.00;;;;;;;11.42;62.05;99904.09;6234101;23;20008;-78
2023/04/21 11:20:14;;;;;;;0.00;0.00;;;;;;;11.22;63.04;99889.44;6188897;23;20012;-76
2023/04/21 11:22:39;;;;;;;0.00;0.00;;;;;;;11.14;64.13;99882.66;6208752;23;20094;-77
2023/04/21 11:25:15;;;;;;;0.00;0.00;;;;;;;11.41;64.56;99900.53;6189144;23;20331;-77
2023/04/21 11:27:41;;;;;;;0.00;0.00;;;;;;;11.45;63.79;99892.59;6209408;23;20015;-77
2023/04/21 11:30:07;;;;;;;0.00;0.00;;;;;;;11.52;64.13;99893.91;6212679;23;20012;-78
2023/04/21 11:32:32;;;;;;;0.00;0.00;;;;;;;11.66;63.41;99905.00;6214466;23;20062;-77
2023/04/21 11:35:00;;;;;;;0.00;0.00;;;;;;;11.74;63.34;99906.34;6210124;23;20008;-76
2023/04/21 11:37:26;;;;;;;0.00;0.00;;;;;;;11.88;62.81;99903.75;6212787;23;20346;-75
2023/04/21 11:40:03;;;;;;;0.00;0.00;;;;;;;11.96;62.37;99897.69;6208831;23;20012;-77
2023/04/21 11:42:29;;;;;;;0.00;0.00;;;;;;;12.09;62.49;99904.41;6214918;23;20000;-77
2023/04/21 11:44:57;;;;;;;0.00;0.00;;;;;;;12.08;62.62;99891.00;6234448;23;20015;-77
2023/04/21 11:47:25;;;;;;;0.00;0.00;;;;;;;12.34;61.94;99908.00;6214700;23;20016;-77
2023/04/21 11:49:53;;;;;;;0.00;0.00;;;;;;;12.43;62.12;99905.44;6208854;23;20146;-76
2023/04/21 11:52:40;;;;;;;0.00;0.00;;;;;;;12.42;62.02;99892.84;6212877;23;20326;-78
2023/04/21 11:55:14;;;;;;;0.00;0.00;;;;;;;12.26;61.52;99898.47;6208690;23;20016;-76